createdAt,value
2022-09-22T00:01:53.408Z,4.13
2022-09-22T00:04:21.892Z,4.60
2022-09-22T00:06:52.193Z,4.87
2022-09-22T00:09:22.522Z,3.90
2022-09-22T00:11:53.984Z,4.37
2022-09-22T00:14:26.662Z,5.30
2022-09-22T00:17:01.112Z,3.80
2022-09-22T00:19:31.948Z,4.40
2022-09-22T00:22:00.928Z,4.43
2022-09-22T00:24:31.028Z,4.67
2022-09-22T00:27:01.124Z,4.73
2022-09-22T00:29:31.623Z,5.00
2022-09-22T00:32:07.173Z,4.90
2022-09-22T00:34:36.147Z,5.30
2022-09-22T00:37:04.542Z,4.83
2022-09-22T00:39:32.873Z,4.73
2022-09-22T00:42:01.262Z,4.83
2022-09-22T00:44:37.700Z,4.83
2022-09-22T00:47:32.649Z,6.17
2022-09-22T00:50:08.934Z,5.20
2022-09-22T00:52:43.338Z,5.50
2022-09-22T00:55:16.970Z,5.60
2022-09-22T00:57:47.590Z,6.10
2022-09-22T01:00:16.866Z,5.90
2022-09-22T01:02:49.736Z,6.27
2022-09-22T01:05:19.078Z,5.30
2022-09-22T01:07:49.560Z,5.80
2022-09-22T01:10:18.646Z,6.27
2022-09-22T01:13:01.450Z,5.40
2022-09-22T01:15:39.085Z,5.70
2022-09-22T01:18:23.462Z,5.67
2022-09-22T01:21:24.938Z,5.77
2022-09-22T01:24:27.149Z,5.00
2022-09-22T01:27:40.199Z,5.80
2022-09-22T01:30:21.884Z,5.10
2022-09-22T01:33:26.821Z,5.50
2022-09-22T01:36:15.002Z,5.33
2022-09-22T01:38:57.622Z,5.40
2022-09-22T01:41:48.887Z,5.10
2022-09-22T01:44:25.859Z,4.67
2022-09-22T01:47:02.403Z,5.90
2022-09-22T01:49:36.732Z,5.00
2022-09-22T01:52:11.554Z,4.20
2022-09-22T01:54:45.734Z,4.27
2022-09-22T01:57:20.052Z,4.10
2022-09-22T01:59:52.746Z,4.57
2022-09-22T02:02:28.118Z,4.23
2022-09-22T02:05:02.363Z,4.67
2022-09-22T02:07:35.656Z,5.07
2022-09-22T02:10:10.184Z,4.40
2022-09-22T02:12:39.512Z,4.23
2022-09-22T02:15:30.112Z,4.17
2022-09-22T02:18:07.669Z,3.90
2022-09-22T02:20:36.730Z,4.23
2022-09-22T02:23:05.131Z,4.03
2022-09-22T02:25:34.174Z,4.30
2022-09-22T02:28:03.766Z,4.70
2022-09-22T02:30:33.243Z,4.67
2022-09-22T02:33:04.160Z,4.43
2022-09-22T02:35:37.982Z,4.63
2022-09-22T02:38:13.266Z,4.00
2022-09-22T02:40:48.214Z,5.23
2022-09-22T02:43:26.828Z,4.40
2022-09-22T02:46:01.272Z,4.33
2022-09-22T02:48:38.116Z,4.63
2022-09-22T02:51:07.051Z,3.80
2022-09-22T02:53:37.621Z,4.30
2022-09-22T02:56:06.582Z,4.17
2022-09-22T02:58:34.966Z,3.90
2022-09-22T03:01:03.541Z,4.03
2022-09-22T03:03:34.043Z,4.20
2022-09-22T03:06:02.481Z,3.73
2022-09-22T03:08:30.874Z,3.70
2022-09-22T03:10:59.214Z,3.83
2022-09-22T03:13:27.551Z,3.73
2022-09-22T03:15:56.055Z,3.77
2022-09-22T03:18:24.401Z,3.40
2022-09-22T03:20:54.183Z,4.47
2022-09-22T03:23:22.515Z,3.27
2022-09-22T03:25:50.960Z,4.33
2022-09-22T03:28:19.359Z,4.40
2022-09-22T03:30:48.038Z,4.10
2022-09-22T03:33:16.535Z,3.80
2022-09-22T03:35:44.960Z,3.80
2022-09-22T03:38:14.777Z,4.47
2022-09-22T03:40:43.425Z,3.97
2022-09-22T03:43:16.483Z,4.60
2022-09-22T03:45:45.974Z,4.73
2022-09-22T03:48:14.414Z,4.20
2022-09-22T03:50:42.825Z,4.33
2022-09-22T03:53:11.241Z,4.50
2022-09-22T03:55:41.025Z,4.40
2022-09-22T03:58:09.633Z,4.77
2022-09-22T04:00:38.546Z,4.73
2022-09-22T04:03:07.043Z,4.70
2022-09-22T04:05:35.520Z,4.43
2022-09-22T04:08:03.885Z,4.50
2022-09-22T04:10:32.427Z,5.00
2022-09-22T04:13:02.253Z,5.20
2022-09-22T04:15:30.661Z,4.30
2022-09-22T04:17:59.160Z,4.50
2022-09-22T04:20:27.649Z,4.27
2022-09-22T04:22:56.050Z,4.60
2022-09-22T04:25:24.600Z,4.83
2022-09-22T04:27:52.965Z,4.60
2022-09-22T04:30:23.817Z,4.83
2022-09-22T04:32:52.283Z,5.30
2022-09-22T04:35:20.656Z,4.70
2022-09-22T04:37:49.160Z,5.27
2022-09-22T04:40:18.342Z,4.43
2022-09-22T04:42:47.371Z,4.70
2022-09-22T04:45:16.639Z,5.10
2022-09-22T04:47:48.917Z,4.50
2022-09-22T04:50:18.838Z,4.67
2022-09-22T04:52:48.280Z,4.20
2022-09-22T04:55:17.157Z,5.40
2022-09-22T04:57:49.604Z,5.13
2022-09-22T05:00:19.373Z,5.70
2022-09-22T05:02:49.910Z,5.63
2022-09-22T05:05:19.002Z,5.60
2022-09-22T05:07:49.567Z,5.47
2022-09-22T05:10:19.100Z,5.47
2022-09-22T05:12:48.304Z,6.03
2022-09-22T05:15:17.008Z,6.63
2022-09-22T05:17:51.874Z,4.80
2022-09-22T05:20:21.522Z,4.60
2022-09-22T05:22:50.248Z,5.40
2022-09-22T05:25:20.882Z,5.30
2022-09-22T05:27:51.199Z,6.53
2022-09-22T05:30:21.655Z,5.87
2022-09-22T05:32:51.943Z,6.13
2022-09-22T05:35:23.254Z,5.40
2022-09-22T05:37:53.858Z,5.97
2022-09-22T05:40:24.107Z,6.03
2022-09-22T05:42:54.556Z,4.83
2022-09-22T05:45:23.146Z,5.33
2022-09-22T05:47:53.464Z,5.40
2022-09-22T05:50:23.750Z,4.90
2022-09-22T05:52:52.332Z,7.10
2022-09-22T05:55:20.770Z,5.93
2022-09-22T05:57:49.320Z,5.30
2022-09-22T06:00:17.945Z,5.37
2022-09-22T06:02:46.471Z,6.03
2022-09-22T06:05:18.970Z,5.93
2022-09-22T06:07:49.163Z,5.27
2022-09-22T06:10:17.891Z,5.57
2022-09-22T06:12:46.371Z,5.60
2022-09-22T06:15:15.125Z,5.87
2022-09-22T06:17:43.608Z,6.10
2022-09-22T06:20:12.033Z,5.90
2022-09-22T06:22:41.940Z,5.53
2022-09-22T06:25:10.950Z,6.47
2022-09-22T06:27:40.216Z,6.70
2022-09-22T06:30:11.189Z,5.60
2022-09-22T06:32:40.277Z,6.80
2022-09-22T06:35:09.701Z,6.10
2022-09-22T06:37:40.331Z,6.17
2022-09-22T06:40:15.295Z,6.13
2022-09-22T06:42:46.502Z,6.33
2022-09-22T06:45:16.170Z,6.00
2022-09-22T06:47:44.641Z,5.97
2022-09-22T06:50:13.067Z,6.13
2022-09-22T06:52:41.488Z,6.17
2022-09-22T06:55:14.260Z,6.90
2022-09-22T06:57:42.656Z,6.40
2022-09-22T07:00:14.480Z,6.80
2022-09-22T07:02:43.026Z,6.67
2022-09-22T07:05:11.853Z,6.00
2022-09-22T07:07:40.320Z,6.03
2022-09-22T07:10:11.723Z,5.63
2022-09-22T07:12:40.160Z,6.43
2022-09-22T07:15:09.966Z,5.40
2022-09-22T07:17:39.422Z,6.00
2022-09-22T07:20:09.706Z,5.80
2022-09-22T07:22:39.678Z,4.73
2022-09-22T07:25:10.509Z,4.90
2022-09-22T07:27:39.205Z,5.20
2022-09-22T07:30:10.284Z,5.10
2022-09-22T07:32:38.795Z,4.60
2022-09-22T07:35:08.356Z,5.10
2022-09-22T07:37:40.286Z,4.20
2022-09-22T07:40:10.943Z,4.47
2022-09-22T07:42:39.419Z,3.97
2022-09-22T07:45:15.395Z,3.97
2022-09-22T07:48:02.960Z,3.83
2022-09-22T07:50:32.073Z,3.77
2022-09-22T07:53:00.628Z,3.90
2022-09-22T07:55:30.544Z,3.43
2022-09-22T07:58:01.537Z,4.13
2022-09-22T08:00:33.174Z,3.80
2022-09-22T08:03:02.243Z,3.30
2022-09-22T08:05:31.120Z,3.70
2022-09-22T08:08:02.263Z,4.47
2022-09-22T08:10:33.911Z,3.00
2022-09-22T08:13:04.457Z,3.40
2022-09-22T08:15:32.942Z,2.87
2022-09-22T08:18:03.845Z,2.73
2022-09-22T08:20:32.350Z,3.40
2022-09-22T08:23:06.757Z,2.97
2022-09-22T08:25:36.604Z,3.10
2022-09-22T08:28:07.709Z,2.90
2022-09-22T08:30:36.507Z,2.53
2022-09-22T08:33:05.025Z,2.77
2022-09-22T08:35:34.614Z,2.80
2022-09-22T08:38:02.998Z,3.30
2022-09-22T08:40:31.524Z,3.53
2022-09-22T08:43:04.384Z,3.20
2022-09-22T08:45:37.288Z,3.30
2022-09-22T08:48:34.981Z,3.07
2022-09-22T08:51:29.630Z,3.38
2022-09-22T08:54:02.550Z,3.40
2022-09-22T08:56:42.467Z,2.72
2022-09-22T08:59:20.185Z,3.73
2022-09-22T09:02:36.701Z,2.90
2022-09-22T09:06:01.407Z,3.30
2022-09-22T09:09:05.357Z,2.93
2022-09-22T09:12:14.640Z,3.00
2022-09-22T09:15:38.232Z,2.87
2022-09-22T09:18:16.086Z,2.50
2022-09-22T09:20:48.345Z,2.97
2022-09-22T09:23:20.774Z,2.80
2022-09-22T09:25:54.363Z,3.93
2022-09-22T09:28:29.238Z,2.53
2022-09-22T09:31:10.666Z,3.13
2022-09-22T09:33:45.904Z,2.97
2022-09-22T09:36:20.620Z,2.70
2022-09-22T09:38:53.791Z,2.63
2022-09-22T09:41:26.330Z,2.00
2022-09-22T09:43:56.408Z,2.40
2022-09-22T09:46:42.002Z,2.80
2022-09-22T09:49:14.999Z,3.00
2022-09-22T09:51:46.836Z,2.80
2022-09-22T09:54:18.061Z,2.87
2022-09-22T09:57:10.177Z,1.57
2022-09-22T09:59:58.461Z,2.70
2022-09-22T10:02:31.136Z,2.43
2022-09-22T10:05:04.527Z,2.53
2022-09-22T10:07:42.094Z,2.43
2022-09-22T10:10:35.527Z,3.13
2022-09-22T10:13:34.363Z,1.60
2022-09-22T10:16:08.149Z,1.80
2022-09-22T10:18:40.763Z,2.00
2022-09-22T10:21:16.482Z,2.10
2022-09-22T10:23:46.949Z,1.97
2022-09-22T10:26:20.097Z,1.63
2022-09-22T10:29:18.201Z,1.93
2022-09-22T10:32:14.588Z,2.10
2022-09-22T10:34:47.345Z,1.83
2022-09-22T10:37:18.903Z,1.90
2022-09-22T10:39:50.256Z,1.90
2022-09-22T10:42:34.294Z,1.70
2022-09-22T10:45:07.066Z,1.60
2022-09-22T10:47:53.042Z,2.00
2022-09-22T10:50:55.389Z,2.20
2022-09-22T10:53:51.365Z,1.33
2022-09-22T10:56:30.747Z,1.40
2022-09-22T10:59:32.583Z,1.30
2022-09-22T11:02:24.007Z,2.60
2022-09-22T11:05:11.282Z,1.57
2022-09-22T11:08:23.721Z,1.80
2022-09-22T11:11:18.398Z,2.23
2022-09-22T11:14:01.263Z,1.90
2022-09-22T11:16:59.003Z,2.33
2022-09-22T11:19:43.984Z,1.70
2022-09-22T11:22:36.502Z,2.00
2022-09-22T11:25:23.832Z,1.33
2022-09-22T11:28:14.499Z,1.90
2022-09-22T11:30:47.305Z,2.20
2022-09-22T11:33:54.884Z,1.43
2022-09-22T11:36:38.562Z,1.60
2022-09-22T11:39:21.089Z,1.40
2022-09-22T11:42:07.965Z,1.10
2022-09-22T11:44:40.497Z,2.57
2022-09-22T11:47:26.911Z,1.27
2022-09-22T11:50:23.361Z,1.60
2022-09-22T11:53:13.116Z,2.50
2022-09-22T11:55:50.004Z,2.77
2022-09-22T11:58:22.762Z,2.20
2022-09-22T12:00:56.733Z,2.13
2022-09-22T12:03:29.149Z,1.20
2022-09-22T12:06:03.336Z,1.30
2022-09-22T12:08:36.943Z,1.50
2022-09-22T12:11:09.073Z,1.90
2022-09-22T12:13:44.315Z,2.00
2022-09-22T12:16:20.914Z,1.80
2022-09-22T12:18:55.491Z,1.40
2022-09-22T12:21:42.888Z,1.30
2022-09-22T12:24:13.465Z,1.70
2022-09-22T12:26:44.974Z,1.20
2022-09-22T12:29:27.811Z,3.67
2022-09-22T12:31:59.034Z,2.40
2022-09-22T12:34:31.976Z,2.80
2022-09-22T12:37:12.833Z,5.63
2022-09-22T12:39:43.942Z,2.90
2022-09-22T12:42:23.171Z,1.60
2022-09-22T12:44:56.610Z,1.77
2022-09-22T12:47:33.498Z,1.13
2022-09-22T12:50:06.630Z,1.90
2022-09-22T12:53:02.641Z,2.07
2022-09-22T12:55:38.448Z,1.53
2022-09-22T12:58:43.755Z,1.50
2022-09-22T13:01:33.506Z,1.30
2022-09-22T13:04:13.917Z,2.03
2022-09-22T13:07:00.618Z,1.43
2022-09-22T13:09:31.805Z,2.63
2022-09-22T13:12:27.052Z,1.50
2022-09-22T13:15:20.648Z,1.30
2022-09-22T13:17:51.099Z,1.23
2022-09-22T13:20:24.901Z,1.70
2022-09-22T13:22:56.619Z,1.43
2022-09-22T13:25:28.825Z,1.00
2022-09-22T13:28:16.484Z,0.90
2022-09-22T13:30:48.877Z,2.50
2022-09-22T13:33:22.791Z,2.57
2022-09-22T13:36:00.541Z,1.30
2022-09-22T13:38:30.338Z,1.13
2022-09-22T13:40:59.079Z,2.30
2022-09-22T13:43:33.389Z,1.70
2022-09-22T13:46:04.469Z,1.63
2022-09-22T13:48:37.134Z,1.23
2022-09-22T13:51:09.243Z,1.37
2022-09-22T13:53:39.055Z,1.40
2022-09-22T13:56:16.923Z,1.50
2022-09-22T13:58:50.731Z,1.10
2022-09-22T14:01:24.107Z,1.40
2022-09-22T14:03:54.147Z,3.10
2022-09-22T14:06:25.149Z,1.53
2022-09-22T14:08:55.102Z,2.43
2022-09-22T14:11:26.038Z,0.90
2022-09-22T14:14:02.727Z,4.33
2022-09-22T14:16:38.474Z,2.37
2022-09-22T14:19:13.820Z,1.40
2022-09-22T14:21:49.279Z,1.17
2022-09-22T14:24:17.927Z,1.00
2022-09-22T14:26:48.772Z,1.00
2022-09-22T14:29:21.362Z,1.60
2022-09-22T14:31:55.414Z,1.30
2022-09-22T14:34:31.197Z,1.07
2022-09-22T14:37:02.335Z,1.00
2022-09-22T14:39:34.217Z,1.17
2022-09-22T14:42:12.055Z,2.33
2022-09-22T14:44:46.161Z,1.47
2022-09-22T14:47:28.840Z,1.30
2022-09-22T14:50:20.110Z,1.10
2022-09-22T14:52:55.850Z,1.30
2022-09-22T14:55:32.843Z,1.47
2022-09-22T14:58:06.653Z,1.27
2022-09-22T15:00:53.665Z,1.17
2022-09-22T15:03:28.161Z,1.23
2022-09-22T15:05:57.041Z,1.60
2022-09-22T15:08:28.850Z,1.10
2022-09-22T15:10:59.741Z,1.20
2022-09-22T15:13:33.241Z,1.13
2022-09-22T15:16:01.704Z,1.10
2022-09-22T15:18:31.526Z,1.20
2022-09-22T15:21:06.817Z,1.03
2022-09-22T15:23:41.059Z,1.03
2022-09-22T15:26:17.876Z,1.20
2022-09-22T15:28:47.737Z,1.20
2022-09-22T15:31:22.480Z,1.37
2022-09-22T15:33:52.571Z,1.67
2022-09-22T15:36:23.026Z,1.20
2022-09-22T15:38:53.128Z,1.77
2022-09-22T15:41:21.499Z,1.30
2022-09-22T15:43:50.003Z,0.90
2022-09-22T15:46:31.542Z,1.10
2022-09-22T15:49:05.586Z,1.33
2022-09-22T15:51:34.013Z,1.30
2022-09-22T15:54:02.624Z,1.60
2022-09-22T15:56:31.884Z,1.33
2022-09-22T15:59:01.898Z,0.90
2022-09-22T16:01:30.604Z,1.37
2022-09-22T16:04:00.277Z,1.30
2022-09-22T16:06:30.366Z,1.00
2022-09-22T16:08:58.783Z,1.40
2022-09-22T16:11:31.870Z,1.50
2022-09-22T16:14:03.788Z,1.20
2022-09-22T16:16:34.027Z,1.30
2022-09-22T16:19:03.422Z,1.53
2022-09-22T16:21:35.646Z,1.40
2022-09-22T16:24:08.177Z,1.03
2022-09-22T16:26:38.337Z,1.60
2022-09-22T16:29:08.158Z,1.57
2022-09-22T16:31:37.191Z,1.10
2022-09-22T16:34:07.859Z,1.00
2022-09-22T16:36:39.822Z,1.00
2022-09-22T16:39:08.427Z,1.50
2022-09-22T16:41:37.775Z,1.40
2022-09-22T16:44:06.373Z,1.03
2022-09-22T16:46:35.100Z,1.53
2022-09-22T16:49:07.581Z,1.90
2022-09-22T16:51:40.888Z,1.40
2022-09-22T16:54:13.233Z,1.53
2022-09-22T16:56:44.321Z,1.80
2022-09-22T16:59:15.270Z,1.20
2022-09-22T17:01:44.738Z,2.87
2022-09-22T17:04:16.756Z,1.63
2022-09-22T17:06:47.290Z,2.13
2022-09-22T17:09:16.688Z,2.73
2022-09-22T17:11:49.117Z,3.00
2022-09-22T17:14:21.162Z,2.33
2022-09-22T17:16:52.040Z,2.67
2022-09-22T17:19:22.961Z,2.20
2022-09-22T17:21:55.178Z,2.70
2022-09-22T17:24:24.960Z,2.43
2022-09-22T17:26:55.300Z,3.57
2022-09-22T17:29:26.466Z,7.27
2022-09-22T17:31:57.597Z,1.93
2022-09-22T17:34:28.468Z,5.50
2022-09-22T17:36:58.948Z,2.80
2022-09-22T17:39:28.998Z,2.60
2022-09-22T17:41:57.594Z,2.30
2022-09-22T17:44:28.826Z,2.50
2022-09-22T17:47:15.148Z,2.80
2022-09-22T17:50:01.126Z,2.13
2022-09-22T17:52:48.427Z,2.20
2022-09-22T17:55:22.705Z,2.40
2022-09-22T17:57:52.663Z,1.50
2022-09-22T18:00:23.888Z,1.93
2022-09-22T18:02:54.284Z,2.20
2022-09-22T18:05:26.872Z,2.93
2022-09-22T18:07:58.609Z,2.50
2022-09-22T18:10:34.002Z,2.90
2022-09-22T18:13:04.344Z,2.93
2022-09-22T18:15:32.812Z,3.23
2022-09-22T18:18:01.340Z,2.73
2022-09-22T18:20:29.805Z,2.97
2022-09-22T18:23:00.275Z,3.63
2022-09-22T18:25:29.000Z,2.90
2022-09-22T18:27:57.861Z,3.10
2022-09-22T18:30:26.553Z,2.93
2022-09-22T18:32:55.011Z,2.57
2022-09-22T18:35:24.166Z,2.63
2022-09-22T18:37:52.763Z,2.90
2022-09-22T18:40:22.599Z,3.20
2022-09-22T18:42:51.011Z,2.80
2022-09-22T18:45:19.510Z,3.80
2022-09-22T18:47:47.855Z,3.43
2022-09-22T18:50:16.436Z,3.30
2022-09-22T18:52:46.389Z,3.47
2022-09-22T18:55:18.828Z,4.27
2022-09-22T18:57:48.585Z,3.20
2022-09-22T19:00:21.153Z,3.53
2022-09-22T19:02:50.441Z,3.27
2022-09-22T19:05:19.447Z,3.70
2022-09-22T19:07:48.390Z,3.10
2022-09-22T19:10:22.033Z,4.10
2022-09-22T19:12:52.015Z,3.17
2022-09-22T19:15:21.182Z,3.27
2022-09-22T19:17:50.612Z,3.63
2022-09-22T19:20:22.561Z,3.37
2022-09-22T19:22:52.408Z,3.10
2022-09-22T19:25:22.397Z,3.47
2022-09-22T19:27:53.441Z,3.77
2022-09-22T19:30:24.965Z,3.10
2022-09-22T19:32:55.557Z,3.70
2022-09-22T19:35:24.062Z,4.07
2022-09-22T19:37:52.911Z,3.70
2022-09-22T19:40:24.853Z,3.70
2022-09-22T19:42:55.783Z,3.93
2022-09-22T19:45:26.223Z,3.03
2022-09-22T19:47:56.962Z,3.90
2022-09-22T19:50:26.007Z,3.90
2022-09-22T19:52:54.339Z,4.30
2022-09-22T19:55:22.771Z,4.57
2022-09-22T19:57:52.360Z,4.60
2022-09-22T20:00:26.228Z,4.27
2022-09-22T20:02:58.474Z,4.20
2022-09-22T20:05:31.613Z,4.30
2022-09-22T20:08:01.454Z,4.07
2022-09-22T20:10:31.247Z,4.50
2022-09-22T20:12:59.634Z,4.60
2022-09-22T20:15:29.509Z,4.07
2022-09-22T20:17:57.997Z,3.57
2022-09-22T20:20:28.815Z,3.60
2022-09-22T20:23:00.485Z,3.43
2022-09-22T20:25:32.388Z,4.00
2022-09-22T20:28:00.787Z,4.23
2022-09-22T20:30:30.586Z,4.23
2022-09-22T20:32:59.262Z,3.70
2022-09-22T20:35:27.821Z,4.00
2022-09-22T20:37:59.213Z,4.00
2022-09-22T20:40:29.117Z,4.17
2022-09-22T20:42:58.067Z,3.70
2022-09-22T20:45:27.267Z,3.70
2022-09-22T20:47:57.163Z,4.60
2022-09-22T20:50:25.837Z,3.93
2022-09-22T20:52:55.455Z,4.70
2022-09-22T20:55:24.088Z,3.93
2022-09-22T20:57:52.516Z,4.30
2022-09-22T21:00:21.054Z,5.07
2022-09-22T21:02:49.750Z,3.87
2022-09-22T21:05:19.818Z,4.83
2022-09-22T21:07:48.273Z,5.23
2022-09-22T21:10:34.044Z,5.60
2022-09-22T21:13:03.372Z,5.23
2022-09-22T21:15:32.070Z,4.20
2022-09-22T21:18:00.466Z,5.50
2022-09-22T21:20:30.225Z,5.40
2022-09-22T21:22:58.605Z,5.17
2022-09-22T21:25:26.904Z,5.33
2022-09-22T21:27:55.293Z,5.00
2022-09-22T21:30:24.373Z,5.10
2022-09-22T21:32:52.839Z,5.33
2022-09-22T21:35:23.892Z,4.30
2022-09-22T21:37:56.224Z,4.77
2022-09-22T21:40:24.964Z,4.40
2022-09-22T21:42:53.327Z,4.30
2022-09-22T21:45:22.019Z,4.17
2022-09-22T21:47:51.930Z,4.53
2022-09-22T21:50:24.348Z,4.33
2022-09-22T21:52:54.044Z,4.60
2022-09-22T21:55:22.723Z,4.77
2022-09-22T21:57:54.024Z,4.70
2022-09-22T22:00:48.003Z,4.90
2022-09-22T22:03:28.736Z,4.10
2022-09-22T22:06:02.505Z,5.13
2022-09-22T22:08:36.900Z,5.27
2022-09-22T22:11:08.618Z,4.67
2022-09-22T22:13:39.413Z,5.00
2022-09-22T22:16:10.168Z,5.07
2022-09-22T22:18:39.702Z,4.80
2022-09-22T22:21:11.946Z,4.67
2022-09-22T22:23:44.705Z,4.90
2022-09-22T22:26:16.327Z,4.67
2022-09-22T22:28:45.788Z,4.57
2022-09-22T22:31:17.537Z,5.00
2022-09-22T22:33:47.098Z,4.43
2022-09-22T22:36:18.582Z,4.70
2022-09-22T22:38:48.324Z,4.90
2022-09-22T22:41:18.191Z,4.70
2022-09-22T22:43:47.943Z,4.07
2022-09-22T22:46:18.936Z,4.20
2022-09-22T22:48:48.974Z,4.57
2022-09-22T22:51:20.325Z,4.73
2022-09-22T22:53:50.982Z,4.40
2022-09-22T22:56:21.752Z,5.00
2022-09-22T22:58:51.509Z,4.70
2022-09-22T23:01:22.728Z,4.77
2022-09-22T23:03:53.577Z,4.20
2022-09-22T23:06:24.781Z,4.63
2022-09-22T23:08:55.676Z,3.90
2022-09-22T23:11:27.290Z,4.53
2022-09-22T23:14:03.369Z,3.33
2022-09-22T23:16:34.551Z,3.80
2022-09-22T23:19:07.747Z,4.40
2022-09-22T23:21:37.631Z,4.17
2022-09-22T23:24:09.030Z,4.03
2022-09-22T23:26:38.407Z,4.67
2022-09-22T23:29:07.078Z,4.20
2022-09-22T23:31:35.703Z,3.90
2022-09-22T23:34:04.174Z,4.03
2022-09-22T23:36:32.770Z,3.20
2022-09-22T23:39:03.798Z,3.90
2022-09-22T23:41:36.966Z,3.97
2022-09-22T23:44:06.957Z,4.23
2022-09-22T23:46:37.568Z,3.90
2022-09-22T23:49:06.863Z,4.00
2022-09-22T23:51:35.405Z,4.07
2022-09-22T23:54:03.802Z,3.50
2022-09-22T23:56:33.655Z,3.77
2022-09-22T23:59:02.045Z,4.30
